Impacts METAR Board INFO
IDs:

KRNH - New Richmond Muni, WI, US

Updated at: 0158 UTC 17 Oct 2017
Potential Impact None Slight Moderate High
Time16/13Z 16/14Z 16/15Z 16/16Z 16/17Z 16/18Z 16/19Z 16/20Z 16/21Z 16/22Z 16/23Z 17/00Z 17/01Z
VIS7 10 10 10 10 10 10 10 10 10 10 10 10
CIG-- -- -- -- -- -- -- -- -- -- -- -- --
CoverCLRCLRCLRCLRCLRCLRCLRCLRCLRCLRCLRCLRCLR
FltCatVFRVFRVFRVFRVFRVFRVFRVFRVFRVFRVFRVFRVFR
WX--------------------------
WDir200200220240220240200210220210170160190
WSpd3 6 7 7 9 12 10 7 12 9 5 5 7
WGst-- -- -- -- -- 16 -- 14 17 15 -- -- --
Raw hourly METARs
KRNH 161255Z AUTO 20003KT 7SM CLR 02/02 A3022 RMK AO2 T00150015
KRNH 161355Z AUTO 20006KT 10SM CLR 04/04 A3021 RMK AO2 T00420042
KRNH 161455Z AUTO 22007KT 10SM CLR 07/05 A3022 RMK AO2 T00690046
KRNH 161555Z AUTO 24007KT 10SM CLR 10/03 A3022 RMK AO2 T01000034
KRNH 161655Z AUTO 22009KT 10SM CLR 12/03 A3020 RMK AO2 T01220030
KRNH 161755Z AUTO 24012G16KT 10SM CLR 14/01 A3018 RMK AO2 T01420006 10142 20006
KRNH 161900Z AUTO 20010KT 10SM CLR 15/01 A3014 RMK AO2 T01540006
KRNH 161950Z AUTO 21007G14KT 10SM CLR 16/00 A3011 RMK AO2 T01600000
KRNH 162055Z AUTO 22012G17KT 10SM CLR 17/00 A3008 RMK AO2 T01660001
KRNH 162155Z AUTO 21009G15KT 10SM CLR 17/00 A3005 RMK AO2 T01650003
KRNH 162255Z AUTO 17005KT 10SM CLR 15/02 A3002 RMK AO2 T01490017
KRNH 162355Z AUTO 16005KT 10SM CLR 12/02 A3001 RMK AO2 T01210018 10166 20120
KRNH 170050Z AUTO 19007KT 10SM CLR 11/02 A2999 RMK AO2 T01070023